Time;durP1;ratioP1;P1;durP2;ratioP2;P2;SDS_P1;SDS_P2;PMS_P1;PMS_P2;Temp;Humidity;BMP_temperature;BMP_pressure;BME280_temperature;BME280_humidity;BME280_pressure;Samples;Min_cycle;Max_cycle;Signal;HPM_P1;HPM_P2
2022/09/02 00:01:32;;;;;;;6.22;5.70;;;20.00;70.20;;;;;;5095691;28;20184;-84
2022/09/02 00:04:02;;;;;;;5.60;5.20;;;19.90;70.70;;;;;;5086753;28;20327;-84
2022/09/02 00:06:30;;;;;;;5.72;5.22;;;19.90;69.80;;;;;;5098710;28;20188;-84
2022/09/02 00:08:56;;;;;;;6.18;5.68;;;19.90;70.70;;;;;;5100399;28;20195;-84
2022/09/02 00:11:26;;;;;;;6.00;5.60;;;19.80;70.80;;;;;;5099899;28;20189;-84
2022/09/02 00:13:52;;;;;;;6.13;5.63;;;19.80;71.00;;;;;;5079384;28;20214;-85
2022/09/02 00:16:18;;;;;;;5.72;5.40;;;19.70;72.50;;;;;;5097326;28;20180;-84
2022/09/02 00:18:44;;;;;;;7.22;5.88;;;19.70;70.20;;;;;;5100501;28;20190;-84
2022/09/02 00:21:11;;;;;;;6.05;5.60;;;19.60;71.10;;;;;;5098936;28;20175;-85
2022/09/02 00:23:37;;;;;;;5.43;5.13;;;19.60;71.20;;;;;;5097737;28;20201;-85
2022/09/02 00:26:03;;;;;;;6.65;6.10;;;19.50;72.10;;;;;;5099901;28;20253;-85
2022/09/02 00:28:29;;;;;;;6.20;5.60;;;19.50;71.70;;;;;;5099233;28;20229;-84
2022/09/02 00:30:55;;;;;;;6.45;5.93;;;19.30;72.60;;;;;;5099344;28;20213;-85
2022/09/02 00:33:21;;;;;;;5.65;5.25;;;19.30;73.50;;;;;;5091954;28;20198;-85
2022/09/02 00:35:47;;;;;;;5.80;5.30;;;19.20;73.30;;;;;;5100672;28;20234;-85
2022/09/02 00:38:13;;;;;;;6.90;5.97;;;19.30;72.50;;;;;;5099591;28;20206;-85
2022/09/02 00:40:46;;;;;;;5.50;5.10;;;19.30;72.40;;;;;;5096263;28;20194;-85
2022/09/02 00:43:41;;;;;;;6.40;5.88;;;19.20;72.70;;;;;;5094258;28;20329;-85
2022/09/02 00:46:08;;;;;;;6.32;5.72;;;19.20;72.90;;;;;;5096850;28;20223;-85
2022/09/02 00:48:39;;;;;;;5.38;5.03;;;19.10;73.40;;;;;;5099550;28;20348;-85
2022/09/02 00:51:06;;;;;;;6.78;6.18;;;19.10;73.10;;;;;;5099889;28;20203;-85
2022/09/02 00:53:32;;;;;;;5.50;5.13;;;19.00;73.10;;;;;;5102121;28;20209;-85
2022/09/02 00:56:00;;;;;;;6.43;5.30;;;19.00;71.90;;;;;;5101247;28;20381;-84
2022/09/02 00:58:31;;;;;;;5.28;4.88;;;19.10;73.70;;;;;;5101679;28;20694;-84
2022/09/02 01:00:59;;;;;;;5.45;5.07;;;19.10;72.00;;;;;;5083531;28;20214;-85
2022/09/02 01:03:27;;;;;;;5.88;5.32;;;19.10;70.60;;;;;;5100126;28;20220;-84
2022/09/02 01:05:56;;;;;;;5.40;5.00;;;19.20;70.80;;;;;;5098217;28;20214;-85
2022/09/02 01:08:31;;;;;;;5.90;5.47;;;19.10;70.20;;;;;;5100690;28;20206;-84
2022/09/02 01:10:57;;;;;;;5.88;5.38;;;19.10;70.20;;;;;;5099393;28;20189;-85
2022/09/02 01:13:28;;;;;;;5.53;5.13;;;19.20;71.00;;;;;;5096949;28;20809;-85
2022/09/02 01:16:29;;;;;;;5.43;5.13;;;19.30;70.00;;;;;;5095611;28;20338;-85
2022/09/02 01:18:59;;;;;;;5.30;4.90;;;19.30;71.10;;;;;;5095821;28;20203;-85
2022/09/02 01:21:25;;;;;;;5.30;4.90;;;19.30;71.70;;;;;;5099372;28;20191;-85
2022/09/02 01:23:52;;;;;;;5.78;5.30;;;19.30;70.90;;;;;;5090830;28;20221;-85
2022/09/02 01:26:18;;;;;;;5.78;5.38;;;19.20;70.90;;;;;;5099855;28;20464;-85
2022/09/02 01:28:45;;;;;;;5.50;5.10;;;19.10;70.80;;;;;;5100071;28;20191;-85
2022/09/02 01:31:11;;;;;;;5.63;5.13;;;19.10;72.20;;;;;;5100728;28;20191;-84
2022/09/02 01:33:36;;;;;;;5.50;5.00;;;19.20;71.70;;;;;;5101444;28;20304;-85
2022/09/02 01:36:03;;;;;;;6.32;5.72;;;19.10;71.50;;;;;;5095136;28;20182;-85
2022/09/02 01:38:30;;;;;;;5.45;4.95;;;19.10;70.80;;;;;;5097767;28;20189;-85
2022/09/02 01:40:56;;;;;;;5.65;5.25;;;19.00;72.20;;;;;;5094185;28;20183;-85
2022/09/02 01:43:25;;;;;;;5.53;5.13;;;18.90;72.30;;;;;;5094279;28;20839;-85
2022/09/02 01:45:55;;;;;;;5.88;5.32;;;18.90;72.90;;;;;;5091253;28;20694;-84
2022/09/02 01:48:20;;;;;;;5.30;4.68;;;19.00;72.50;;;;;;5095358;28;20663;-84
2022/09/02 01:50:54;;;;;;;5.13;4.82;;;19.10;72.10;;;;;;5095097;28;20205;-84
2022/09/02 01:53:21;;;;;;;5.60;5.10;;;19.20;72.00;;;;;;5092687;28;20210;-85
2022/09/02 01:55:47;;;;;;;5.57;5.07;;;19.30;71.50;;;;;;5096244;28;20198;-85
2022/09/02 01:58:12;;;;;;;6.38;5.20;;;19.30;71.30;;;;;;5100027;28;20199;-85
2022/09/02 02:00:38;;;;;;;5.40;5.00;;;19.20;71.20;;;;;;5100442;28;20251;-85
2022/09/02 02:03:04;;;;;;;5.25;4.75;;;19.20;71.60;;;;;;5097299;28;20180;-85
2022/09/02 02:05:30;;;;;;;5.05;4.57;;;19.10;71.60;;;;;;5094856;28;20890;-85
2022/09/02 02:07:56;;;;;;;6.43;5.47;;;19.00;72.10;;;;;;5096886;28;20691;-84
2022/09/02 02:10:22;;;;;;;5.53;5.00;;;18.90;72.50;;;;;;5097151;28;20194;-84
2022/09/02 02:12:48;;;;;;;4.90;4.60;;;18.80;73.40;;;;;;5100552;28;20203;-85
2022/09/02 02:15:17;;;;;;;5.53;5.13;;;18.80;74.20;;;;;;5096829;28;20203;-85
2022/09/02 02:17:43;;;;;;;5.10;4.75;;;18.80;73.60;;;;;;5092097;28;20209;-84
2022/09/02 02:20:10;;;;;;;5.13;4.72;;;18.90;73.00;;;;;;5100449;28;20183;-84
2022/09/02 02:22:36;;;;;;;5.93;5.43;;;18.80;72.20;;;;;;5097628;28;20198;-84
2022/09/02 02:25:03;;;;;;;5.43;5.03;;;18.80;72.90;;;;;;5081510;28;20570;-84
2022/09/02 02:27:29;;;;;;;5.00;4.70;;;18.80;73.00;;;;;;5103723;28;20183;-85
2022/09/02 02:29:55;;;;;;;5.60;5.20;;;18.70;73.00;;;;;;5102973;28;20186;-85
2022/09/02 02:32:20;;;;;;;5.20;4.90;;;18.70;73.40;;;;;;5092700;28;20270;-84
2022/09/02 02:34:46;;;;;;;5.63;5.15;;;18.60;73.00;;;;;;5101690;28;20217;-83
2022/09/02 02:37:13;;;;;;;6.28;5.15;;;18.60;73.50;;;;;;5089261;28;20195;-85
2022/09/02 02:39:40;;;;;;;5.50;5.10;;;18.60;73.30;;;;;;5096256;28;20193;-85
2022/09/02 02:42:07;;;;;;;5.50;5.10;;;18.60;73.60;;;;;;5093988;28;20232;-85
2022/09/02 02:44:33;;;;;;;5.10;4.80;;;18.40;74.30;;;;;;5096172;28;20260;-85
2022/09/02 02:46:59;;;;;;;5.65;5.18;;;18.30;74.30;;;;;;5097853;28;20179;-84
2022/09/02 02:49:26;;;;;;;5.00;4.60;;;18.20;75.20;;;;;;5090457;28;20202;-85
2022/09/02 02:51:52;;;;;;;5.40;5.00;;;18.20;75.60;;;;;;5098788;28;20199;-85
2022/09/02 02:54:19;;;;;;;5.45;4.95;;;18.10;75.90;;;;;;5096010;28;20218;-85
2022/09/02 02:56:45;;;;;;;5.60;5.20;;;17.90;77.00;;;;;;5098672;28;20189;-85
2022/09/02 02:59:11;;;;;;;5.68;5.25;;;17.80;77.90;;;;;;5098633;28;20369;-85
2022/09/02 03:01:37;;;;;;;5.43;5.03;;;17.70;79.00;;;;;;5099213;28;20209;-84
2022/09/02 03:04:04;;;;;;;6.95;5.50;;;17.60;80.10;;;;;;5101349;28;20198;-85
2022/09/02 03:06:29;;;;;;;5.43;5.10;;;17.50;81.00;;;;;;5091130;28;20237;-84
2022/09/02 03:08:56;;;;;;;5.30;4.80;;;17.40;82.30;;;;;;5098435;28;20202;-85
2022/09/02 03:11:23;;;;;;;6.35;5.40;;;17.40;81.90;;;;;;5089263;28;20253;-85
2022/09/02 03:13:51;;;;;;;5.85;4.85;;;17.30;83.10;;;;;;5097170;28;20852;-85
2022/09/02 03:16:18;;;;;;;5.70;5.28;;;17.20;84.00;;;;;;5099916;28;20838;-84
2022/09/02 03:18:49;;;;;;;5.50;4.80;;;17.10;84.20;;;;;;5103596;28;20177;-84
2022/09/02 03:21:14;;;;;;;5.53;5.03;;;17.10;84.50;;;;;;5102529;28;20189;-85
2022/09/02 03:23:41;;;;;;;6.00;5.55;;;16.90;85.40;;;;;;5088741;28;20198;-84
2022/09/02 03:26:11;;;;;;;6.57;5.83;;;17.00;85.60;;;;;;5100943;28;20708;-85
2022/09/02 03:28:38;;;;;;;5.33;4.93;;;16.90;85.40;;;;;;5104695;28;20192;-84
2022/09/02 03:31:04;;;;;;;4.87;4.57;;;16.90;85.90;;;;;;5098357;28;20190;-84
2022/09/02 03:33:31;;;;;;;5.30;4.90;;;16.90;85.80;;;;;;5101283;28;20201;-84
2022/09/02 03:35:56;;;;;;;5.38;4.97;;;17.10;85.80;;;;;;5097900;28;20202;-84
2022/09/02 03:38:22;;;;;;;5.47;5.07;;;17.30;84.20;;;;;;5100708;28;20193;-84
2022/09/02 03:40:48;;;;;;;5.22;4.82;;;17.20;83.90;;;;;;5095502;28;20268;-84
2022/09/02 03:43:15;;;;;;;5.63;5.13;;;17.00;85.10;;;;;;5096992;28;20200;-86
2022/09/02 03:45:41;;;;;;;6.30;5.70;;;16.90;85.80;;;;;;5097239;28;20219;-84
2022/09/02 03:48:07;;;;;;;5.67;5.27;;;16.80;86.80;;;;;;5098835;28;20269;-84
2022/09/02 03:50:38;;;;;;;5.60;5.20;;;16.70;87.30;;;;;;5098005;28;20208;-85
2022/09/02 03:53:04;;;;;;;5.47;4.97;;;16.50;88.20;;;;;;5095360;28;20215;-85
2022/09/02 03:55:31;;;;;;;7.40;6.70;;;16.40;89.00;;;;;;5095092;28;20205;-85
2022/09/02 03:57:56;;;;;;;5.47;5.07;;;16.50;88.90;;;;;;5103828;28;20189;-86
2022/09/02 04:00:27;;;;;;;6.13;5.73;;;16.50;88.50;;;;;;5100962;28;20212;-85
2022/09/02 04:02:54;;;;;;;6.00;5.60;;;16.40;88.80;;;;;;5094412;28;20185;-85
2022/09/02 04:05:21;;;;;;;6.47;5.90;;;16.30;89.50;;;;;;5100076;28;20218;-84
2022/09/02 04:07:47;;;;;;;5.73;5.17;;;16.00;91.30;;;;;;5101085;28;20190;-84
2022/09/02 04:10:13;;;;;;;5.77;5.10;;;16.10;91.10;;;;;;5100902;28;20200;-85
2022/09/02 04:12:39;;;;;;;5.23;4.83;;;16.30;90.30;;;;;;5100880;28;20921;-85
2022/09/02 04:15:07;;;;;;;7.87;5.43;;;16.60;89.20;;;;;;5096381;28;20233;-85
2022/09/02 04:21:11;;;;;;;5.73;5.20;;;16.70;86.60;;;;;;5092582;28;20184;-86
2022/09/02 04:23:37;;;;;;;6.03;5.53;;;16.80;86.30;;;;;;5093897;28;20188;-84
2022/09/02 04:26:09;;;;;;;6.57;5.60;;;16.80;85.90;;;;;;5096135;28;20193;-85
2022/09/02 04:28:35;;;;;;;6.05;5.32;;;16.80;85.90;;;;;;5092177;28;20334;-84
2022/09/02 04:31:10;;;;;;;5.40;5.00;;;16.70;86.40;;;;;;5088401;28;20265;-84
2022/09/02 04:33:36;;;;;;;6.93;5.73;;;16.60;87.20;;;;;;5093240;28;20208;-85
2022/09/02 04:36:10;;;;;;;5.77;5.37;;;16.60;87.60;;;;;;5086148;28;20311;-84
2022/09/02 04:38:36;;;;;;;6.20;5.70;;;16.60;87.20;;;;;;5089033;28;20278;-83
2022/09/02 04:41:32;;;;;;;6.83;5.80;;;16.40;87.60;;;;;;5089799;28;20204;-83
2022/09/02 04:43:58;;;;;;;5.97;5.57;;;16.30;87.80;;;;;;5080505;28;20200;-83
2022/09/02 04:46:24;;;;;;;6.00;5.40;;;16.30;88.00;;;;;;5086488;28;20219;-83
2022/09/02 04:48:50;;;;;;;6.23;5.70;;;16.40;87.30;;;;;;5091134;28;20187;-83
2022/09/02 04:51:19;;;;;;;6.50;5.90;;;16.30;87.20;;;;;;5086726;28;20200;-84
2022/09/02 04:53:47;;;;;;;7.03;6.53;;;16.30;87.70;;;;;;5091283;28;20298;-84
2022/09/02 04:56:15;;;;;;;6.07;5.57;;;16.20;88.60;;;;;;5089449;28;20184;-83
2022/09/02 04:58:43;;;;;;;9.03;5.73;;;16.10;89.70;;;;;;5088964;28;20185;-83
2022/09/02 05:01:19;;;;;;;6.67;5.60;;;15.90;90.10;;;;;;5095232;28;20177;-84
2022/09/02 05:03:46;;;;;;;6.23;5.50;;;15.70;90.90;;;;;;5089094;28;20202;-83
2022/09/02 05:06:16;;;;;;;5.73;5.23;;;15.70;91.20;;;;;;5091266;28;20228;-84
2022/09/02 05:08:42;;;;;;;5.73;5.23;;;15.70;90.80;;;;;;5090618;28;20195;-84
2022/09/02 05:11:19;;;;;;;5.60;5.10;;;15.60;91.20;;;;;;5087741;28;20191;-86
2022/09/02 05:13:52;;;;;;;5.23;4.90;;;15.60;91.80;;;;;;5092421;28;20207;-83
2022/09/02 05:16:21;;;;;;;5.60;5.20;;;15.50;92.10;;;;;;5094593;28;20218;-84
2022/09/02 05:18:48;;;;;;;6.20;5.07;;;15.50;92.00;;;;;;5097650;28;20194;-83
2022/09/02 05:21:14;;;;;;;5.47;4.97;;;15.60;91.60;;;;;;5098347;28;20262;-84
2022/09/02 05:23:39;;;;;;;5.53;4.97;;;15.60;90.90;;;;;;5098728;28;20188;-82
2022/09/02 05:26:06;;;;;;;6.13;5.00;;;15.70;90.30;;;;;;5096699;28;20190;-84
2022/09/02 05:28:33;;;;;;;5.10;4.80;;;15.80;89.90;;;;;;5089920;28;20182;-84
2022/09/02 05:31:09;;;;;;;5.03;4.63;;;15.80;88.80;;;;;;5094710;28;20713;-84
2022/09/02 05:33:37;;;;;;;5.40;5.00;;;15.90;89.00;;;;;;5099420;28;20594;-84
2022/09/02 05:36:04;;;;;;;4.70;4.40;;;15.90;88.20;;;;;;5090540;28;20696;-84
2022/09/02 05:38:30;;;;;;;4.90;4.60;;;16.10;87.80;;;;;;5099788;28;20274;-84
2022/09/02 05:40:58;;;;;;;5.37;4.87;;;16.10;87.70;;;;;;5098833;28;20180;-84
2022/09/02 05:43:24;;;;;;;4.63;4.30;;;16.10;88.10;;;;;;5097004;28;20207;-84
2022/09/02 05:45:50;;;;;;;5.00;4.70;;;16.20;87.50;;;;;;5092341;28;20208;-85
2022/09/02 05:51:04;;;;;;;4.90;4.50;;;16.30;88.20;;;;;;5094573;28;20271;-84
2022/09/02 05:53:31;;;;;;;5.23;4.83;;;16.30;88.70;;;;;;5096503;28;20686;-85
2022/09/02 05:55:57;;;;;;;6.00;4.93;;;16.20;89.30;;;;;;5098918;28;20229;-84
2022/09/02 05:58:23;;;;;;;4.70;4.40;;;16.20;89.60;;;;;;5098163;28;20186;-84
2022/09/02 06:00:49;;;;;;;6.23;5.00;;;16.20;89.70;;;;;;5097008;28;20266;-84
2022/09/02 06:03:18;;;;;;;5.17;4.70;;;16.30;89.90;;;;;;5096543;28;20219;-84
2022/09/02 06:05:56;;;;;;;4.93;4.63;;;16.40;89.60;;;;;;5099221;28;20298;-84
2022/09/02 06:08:22;;;;;;;4.70;4.40;;;16.50;88.40;;;;;;5095107;28;20180;-84
2022/09/02 06:10:48;;;;;;;5.00;4.60;;;16.70;88.70;;;;;;5097781;28;20680;-84
2022/09/02 06:13:14;;;;;;;5.55;5.05;;;16.80;87.70;;;;;;5097795;28;20347;-85
2022/09/02 06:15:43;;;;;;;5.07;4.57;;;17.00;87.10;;;;;;5095115;28;20200;-85
2022/09/02 06:18:10;;;;;;;4.90;4.50;;;17.10;87.60;;;;;;5094824;28;20293;-84
2022/09/02 06:20:40;;;;;;;4.75;4.35;;;17.10;87.20;;;;;;5097736;28;20196;-83
2022/09/02 06:23:06;;;;;;;4.80;4.40;;;17.20;85.40;;;;;;5090657;28;20197;-84
2022/09/02 06:25:36;;;;;;;4.93;4.45;;;17.40;83.70;;;;;;5092159;28;20711;-83
2022/09/02 06:28:02;;;;;;;4.70;4.38;;;17.50;82.20;;;;;;5093092;28;20191;-83
2022/09/02 06:30:28;;;;;;;4.30;3.95;;;17.60;81.30;;;;;;5100300;28;20191;-84
2022/09/02 06:32:54;;;;;;;4.53;4.13;;;17.70;78.90;;;;;;5094200;28;20226;-84
2022/09/02 06:35:20;;;;;;;4.70;4.28;;;17.80;76.50;;;;;;5100100;28;20202;-85
2022/09/02 06:37:47;;;;;;;4.05;3.75;;;17.80;76.30;;;;;;5096371;28;20251;-84
2022/09/02 06:40:13;;;;;;;6.30;5.70;;;17.80;77.50;;;;;;5097587;28;20187;-84
2022/09/02 06:42:39;;;;;;;13.38;8.45;;;17.90;76.20;;;;;;5096760;28;20187;-84
2022/09/02 06:45:06;;;;;;;5.15;4.82;;;17.90;76.80;;;;;;5108382;28;20256;-84
2022/09/02 06:47:34;;;;;;;4.88;4.38;;;18.00;77.10;;;;;;5109453;28;20197;-84
2022/09/02 06:50:01;;;;;;;4.50;4.10;;;18.00;77.70;;;;;;5096229;28;20199;-84
2022/09/02 06:52:27;;;;;;;5.55;5.05;;;18.10;77.50;;;;;;5091118;28;20214;-84
2022/09/02 06:54:54;;;;;;;5.53;4.00;;;18.20;74.80;;;;;;5099583;28;20215;-85
2022/09/02 06:57:19;;;;;;;6.13;4.40;;;18.30;74.60;;;;;;5096683;28;20183;-85
2022/09/02 06:59:46;;;;;;;3.90;3.60;;;18.50;73.70;;;;;;5097759;28;20251;-84
2022/09/02 07:02:13;;;;;;;4.20;3.90;;;18.50;70.10;;;;;;5100392;28;20815;-85
2022/09/02 07:07:24;;;;;;;3.70;3.40;;;18.80;71.30;;;;;;5086255;28;20190;-85
2022/09/02 07:09:50;;;;;;;3.38;3.17;;;18.90;69.40;;;;;;5100923;28;20278;-84
2022/09/02 07:12:17;;;;;;;3.60;3.30;;;19.00;67.60;;;;;;5097083;28;20203;-85
2022/09/02 07:14:44;;;;;;;3.55;3.25;;;19.10;67.20;;;;;;5099246;28;20205;-84
2022/09/02 07:17:16;;;;;;;3.38;3.17;;;19.20;66.60;;;;;;5092009;28;20195;-85
2022/09/02 07:19:43;;;;;;;3.20;3.00;;;19.10;66.10;;;;;;5101667;28;20179;-85
2022/09/02 07:22:09;;;;;;;3.50;3.30;;;19.20;65.40;;;;;;5100910;28;20187;-84
2022/09/02 07:24:36;;;;;;;3.30;3.10;;;19.30;66.60;;;;;;5098453;28;20248;-86
2022/09/02 07:27:02;;;;;;;3.50;3.22;;;19.40;64.20;;;;;;5097997;28;20183;-85
2022/09/02 07:29:27;;;;;;;4.80;3.10;;;19.50;64.20;;;;;;5094243;28;20191;-85
2022/09/02 07:31:53;;;;;;;3.67;3.38;;;19.60;63.60;;;;;;5095859;28;20175;-84
2022/09/02 07:34:19;;;;;;;3.50;3.20;;;19.50;63.20;;;;;;5102615;28;20523;-85
2022/09/02 07:36:46;;;;;;;23.90;5.40;;;19.50;63.00;;;;;;5103921;28;20341;-85
2022/09/02 07:39:13;;;;;;;7.70;3.60;;;19.60;64.20;;;;;;5097997;28;20218;-85
2022/09/02 07:41:40;;;;;;;4.10;3.40;;;19.60;63.70;;;;;;5090964;28;20189;-85
2022/09/02 07:44:07;;;;;;;4.60;3.70;;;19.70;63.40;;;;;;5087991;28;20217;-85
2022/09/02 07:46:34;;;;;;;3.42;3.15;;;19.80;62.10;;;;;;5092096;28;20232;-86
2022/09/02 07:49:02;;;;;;;4.22;3.15;;;19.90;63.00;;;;;;5091190;28;20209;-84
2022/09/02 07:51:28;;;;;;;3.75;3.33;;;20.00;61.20;;;;;;5097206;28;20191;-86
2022/09/02 07:53:54;;;;;;;3.47;3.17;;;20.00;61.80;;;;;;5096191;28;20217;-85
2022/09/02 07:56:20;;;;;;;7.30;3.50;;;20.10;61.20;;;;;;5096468;28;20218;-84
2022/09/02 07:58:46;;;;;;;4.35;3.22;;;20.10;61.00;;;;;;5098291;28;20179;-85
2022/09/02 08:01:13;;;;;;;4.53;3.30;;;20.20;59.60;;;;;;5080772;28;20218;-84
2022/09/02 08:03:40;;;;;;;3.25;3.05;;;20.40;59.90;;;;;;5096028;28;20605;-86
2022/09/02 08:06:07;;;;;;;3.28;2.97;;;20.40;60.50;;;;;;5095026;28;20202;-85
2022/09/02 08:08:33;;;;;;;3.15;2.95;;;20.50;59.20;;;;;;5096815;28;20211;-85
2022/09/02 08:10:59;;;;;;;3.28;3.08;;;20.60;58.60;;;;;;5095979;28;20191;-85
2022/09/02 08:13:25;;;;;;;3.55;3.25;;;20.70;58.50;;;;;;5097156;28;20344;-84
2022/09/02 08:15:51;;;;;;;3.63;3.30;;;20.70;58.10;;;;;;5097709;28;20222;-86
2022/09/02 08:18:17;;;;;;;3.50;3.20;;;20.90;57.60;;;;;;5094556;28;20657;-85
2022/09/02 08:20:43;;;;;;;5.55;3.58;;;21.00;56.50;;;;;;5096673;28;20203;-85
2022/09/02 08:23:09;;;;;;;4.55;3.22;;;21.10;56.40;;;;;;5085939;28;20187;-84
2022/09/02 08:25:35;;;;;;;4.03;3.42;;;21.10;56.50;;;;;;5094568;28;20281;-86
2022/09/02 08:28:02;;;;;;;3.92;3.05;;;21.30;56.30;;;;;;5095017;28;20707;-86
2022/09/02 08:30:28;;;;;;;3.42;3.20;;;21.30;56.60;;;;;;5091328;28;20191;-85
2022/09/02 08:32:53;;;;;;;3.38;3.17;;;21.50;55.80;;;;;;5091597;28;20203;-85
2022/09/02 08:35:19;;;;;;;3.45;3.15;;;21.60;54.80;;;;;;5089582;28;20221;-85
2022/09/02 08:37:45;;;;;;;5.38;3.17;;;21.70;54.50;;;;;;5087407;28;20831;-85
2022/09/02 08:40:23;;;;;;;3.40;3.10;;;21.90;54.50;;;;;;5088833;28;20194;-84
2022/09/02 08:42:54;;;;;;;3.50;3.20;;;22.10;54.40;;;;;;5086223;28;20206;-83
2022/09/02 08:45:42;;;;;;;3.60;3.30;;;22.20;52.70;;;;;;5091242;28;20215;-86
2022/09/02 08:48:23;;;;;;;3.90;3.30;;;22.30;52.90;;;;;;5093922;28;20182;-85
2022/09/02 08:50:51;;;;;;;3.75;3.40;;;22.30;50.00;;;;;;5080616;28;20272;-83
2022/09/02 08:53:33;;;;;;;3.70;3.40;;;22.30;52.50;;;;;;5089364;28;20222;-85
2022/09/02 08:56:02;;;;;;;3.50;3.20;;;22.20;52.70;;;;;;5094133;28;20217;-85
2022/09/02 08:58:38;;;;;;;3.60;3.30;;;22.40;53.60;;;;;;5092430;28;20187;-84
2022/09/02 09:01:25;;;;;;;3.13;2.90;;;22.50;51.50;;;;;;5091468;28;20208;-84
2022/09/02 09:04:16;;;;;;;3.67;3.38;;;22.60;52.20;;;;;;5090668;28;20210;-85
2022/09/02 09:07:15;;;;;;;5.70;4.13;;;22.70;51.00;;;;;;5083387;28;20194;-84
2022/09/02 09:09:55;;;;;;;4.43;3.45;;;22.80;50.00;;;;;;5093384;28;20271;-83
2022/09/02 09:12:26;;;;;;;2.95;2.75;;;22.90;49.30;;;;;;5081103;28;20509;-85
2022/09/02 09:15:07;;;;;;;5.22;3.40;;;23.10;49.40;;;;;;5084530;28;20248;-85
2022/09/02 09:17:42;;;;;;;4.00;3.15;;;23.00;48.00;;;;;;5094101;28;20186;-84
2022/09/02 09:20:19;;;;;;;3.95;3.28;;;23.20;47.50;;;;;;5082280;28;20915;-87
2022/09/02 09:22:47;;;;;;;3.60;3.30;;;23.30;47.60;;;;;;5085162;28;20190;-83
2022/09/02 09:25:14;;;;;;;3.70;3.40;;;23.30;47.90;;;;;;5093113;28;20859;-85
2022/09/02 09:27:41;;;;;;;4.13;3.50;;;23.40;47.60;;;;;;5086471;28;20739;-84
2022/09/02 09:30:09;;;;;;;3.95;3.20;;;23.70;46.10;;;;;;5093828;28;20216;-82
2022/09/02 09:32:45;;;;;;;3.42;3.13;;;23.60;46.20;;;;;;5092481;28;20207;-82
2022/09/02 09:35:13;;;;;;;3.53;3.22;;;23.80;46.50;;;;;;5082946;28;20703;-84
2022/09/02 09:37:43;;;;;;;3.58;3.28;;;23.90;47.20;;;;;;5085528;28;20226;-84
2022/09/02 09:40:21;;;;;;;3.45;3.13;;;24.10;45.80;;;;;;5087448;28;20182;-84
2022/09/02 09:43:09;;;;;;;3.50;3.28;;;24.10;44.60;;;;;;5090028;28;20221;-84
2022/09/02 09:45:44;;;;;;;3.50;3.30;;;23.90;44.90;;;;;;5084351;28;20202;-84
2022/09/02 09:48:22;;;;;;;3.75;3.03;;;24.00;44.20;;;;;;5085184;28;20199;-84
2022/09/02 09:51:09;;;;;;;4.70;3.35;;;24.10;43.90;;;;;;5096103;28;20221;-85
2022/09/02 09:53:36;;;;;;;3.25;3.05;;;24.40;44.00;;;;;;5097610;28;20559;-84
2022/09/02 09:56:05;;;;;;;3.75;3.38;;;24.60;41.50;;;;;;5090386;28;20750;-83
2022/09/02 09:58:40;;;;;;;3.50;3.10;;;24.60;41.60;;;;;;5088963;28;20184;-83
2022/09/02 10:01:17;;;;;;;3.65;2.75;;;24.70;41.00;;;;;;5097038;28;20186;-83
2022/09/02 10:03:53;;;;;;;3.50;3.30;;;24.70;41.40;;;;;;5096163;28;20203;-83
2022/09/02 10:06:30;;;;;;;3.53;3.22;;;24.70;40.70;;;;;;5092671;28;20193;-84
2022/09/02 10:09:01;;;;;;;3.75;3.40;;;24.80;39.80;;;;;;5096962;28;20179;-84
2022/09/02 10:11:32;;;;;;;3.65;3.20;;;25.00;39.40;;;;;;5086492;28;20182;-83
2022/09/02 10:14:01;;;;;;;3.13;2.90;;;25.00;39.60;;;;;;5088884;28;20225;-82
2022/09/02 10:16:27;;;;;;;3.30;3.10;;;25.10;39.10;;;;;;5090513;28;20660;-84
2022/09/02 10:18:58;;;;;;;3.28;3.05;;;25.20;38.50;;;;;;5089320;28;20183;-83
2022/09/02 10:21:58;;;;;;;3.40;3.10;;;25.30;37.90;;;;;;5094880;28;20175;-84
2022/09/02 10:24:32;;;;;;;3.20;3.00;;;25.60;37.60;;;;;;5089819;28;20227;-83
2022/09/02 10:27:00;;;;;;;4.15;3.35;;;25.70;37.10;;;;;;5092602;28;20178;-82
2022/09/02 10:29:44;;;;;;;3.08;2.78;;;25.80;37.10;;;;;;5097199;28;20194;-83
2022/09/02 10:32:31;;;;;;;3.38;3.03;;;26.10;37.20;;;;;;5085092;28;20262;-84
2022/09/02 10:35:33;;;;;;;4.60;3.20;;;26.10;36.50;;;;;;5092847;28;20637;-83
2022/09/02 10:38:28;;;;;;;3.35;3.05;;;26.10;35.60;;;;;;5091989;28;20175;-85
2022/09/02 10:41:26;;;;;;;3.40;3.10;;;26.10;35.80;;;;;;5094138;28;20177;-85
2022/09/02 10:44:09;;;;;;;4.63;3.10;;;26.70;35.00;;;;;;5092649;28;20191;-83
2022/09/02 10:46:59;;;;;;;4.55;3.00;;;26.70;33.60;;;;;;5093705;28;20254;-87
2022/09/02 10:49:47;;;;;;;3.80;3.10;;;26.90;34.50;;;;;;5098233;28;20211;-85
2022/09/02 10:52:31;;;;;;;3.22;3.03;;;27.00;33.10;;;;;;5096629;28;20205;-85
2022/09/02 10:55:16;;;;;;;3.58;3.28;;;27.20;32.30;;;;;;5092257;28;20204;-85
2022/09/02 10:57:41;;;;;;;3.40;3.10;;;27.10;32.20;;;;;;5097703;28;20174;-88
2022/09/02 11:00:13;;;;;;;4.57;2.80;;;27.20;31.90;;;;;;5091379;28;20575;-90
2022/09/02 11:03:39;;;;;;;3.67;3.10;;;27.30;32.50;;;;;;5089141;28;20187;-90
2022/09/02 11:10:13;;;;;;;6.63;3.08;;;27.30;32.10;;;;;;5043684;28;20201;-90
2022/09/02 11:16:19;;;;;;;3.17;2.85;;;27.80;30.70;;;;;;5125523;22;20249;-86
2022/09/02 11:19:05;;;;;;;3.63;3.33;;;27.80;31.70;;;;;;5113992;28;20657;-86
2022/09/02 11:22:02;;;;;;;3.22;3.03;;;28.10;31.00;;;;;;5104210;28;20203;-84
2022/09/02 11:24:38;;;;;;;3.15;2.95;;;28.40;30.20;;;;;;5107260;28;20182;-85
2022/09/02 11:27:39;;;;;;;5.43;3.20;;;28.60;29.50;;;;;;5094705;28;20245;-84
2022/09/02 11:30:11;;;;;;;3.30;3.10;;;28.70;29.40;;;;;;5017663;28;20269;-87
2022/09/02 11:32:54;;;;;;;3.33;3.00;;;28.80;29.40;;;;;;5091911;28;20575;-85
2022/09/02 11:35:26;;;;;;;2.85;2.72;;;28.80;29.20;;;;;;5087292;28;20183;-85
2022/09/02 11:38:04;;;;;;;3.10;2.90;;;28.90;28.90;;;;;;5100162;28;20176;-86
2022/09/02 11:40:57;;;;;;;3.25;3.05;;;28.80;28.30;;;;;;5089871;28;20205;-86
2022/09/02 11:44:04;;;;;;;3.00;2.80;;;29.10;28.30;;;;;;5057761;28;20206;-85
2022/09/02 11:46:54;;;;;;;3.30;3.00;;;28.80;28.40;;;;;;5100541;28;20208;-86
2022/09/02 11:49:37;;;;;;;3.17;2.97;;;28.90;28.00;;;;;;5085775;28;20191;-86
2022/09/02 11:52:06;;;;;;;3.30;3.00;;;29.00;28.10;;;;;;5096513;28;20292;-86
2022/09/02 11:54:39;;;;;;;3.28;3.08;;;29.00;29.00;;;;;;5101865;28;20251;-86
2022/09/02 11:57:10;;;;;;;3.17;2.97;;;29.30;28.30;;;;;;5087367;28;20210;-87
2022/09/02 11:59:50;;;;;;;3.42;3.22;;;29.60;28.00;;;;;;5095113;28;20245;-86
2022/09/02 12:02:56;;;;;;;3.20;3.00;;;30.00;27.20;;;;;;5093598;28;20234;-86
2022/09/02 12:05:30;;;;;;;3.35;3.15;;;29.90;26.90;;;;;;5090672;28;20179;-86
2022/09/02 12:08:35;;;;;;;3.35;3.15;;;30.00;26.90;;;;;;5100794;28;20174;-87
2022/09/02 12:11:05;;;;;;;3.58;3.30;;;30.40;26.70;;;;;;5081479;28;20213;-87
2022/09/02 12:13:41;;;;;;;3.58;3.30;;;30.70;26.00;;;;;;5094593;28;20227;-87
2022/09/02 12:16:49;;;;;;;3.10;2.90;;;30.50;25.90;;;;;;5101691;28;20232;-87
2022/09/02 12:19:17;;;;;;;3.45;3.15;;;30.50;26.70;;;;;;5050654;28;20195;-87
2022/09/02 12:22:15;;;;;;;3.00;2.80;;;30.80;26.20;;;;;;5096739;28;20233;-87
2022/09/02 12:24:52;;;;;;;2.85;2.70;;;30.20;26.30;;;;;;5085176;28;20209;-87
2022/09/02 12:27:36;;;;;;;3.50;3.20;;;30.00;26.20;;;;;;5085573;28;20658;-88
2022/09/02 12:30:11;;;;;;;3.22;3.03;;;30.10;26.10;;;;;;5085727;28;20209;-87
2022/09/02 12:32:48;;;;;;;3.30;3.10;;;30.40;25.70;;;;;;5087233;28;20569;-87
2022/09/02 12:35:47;;;;;;;3.55;3.13;;;30.20;25.80;;;;;;5094307;28;20201;-87
2022/09/02 12:38:13;;;;;;;3.30;3.10;;;30.40;26.10;;;;;;5095695;28;20175;-86
2022/09/02 12:41:03;;;;;;;3.15;2.95;;;30.80;25.70;;;;;;5078115;28;20183;-87
2022/09/02 12:43:40;;;;;;;3.17;2.90;;;31.00;24.80;;;;;;5098622;28;20211;-87
2022/09/02 12:46:30;;;;;;;3.45;3.10;;;30.70;25.20;;;;;;5089980;28;20187;-88
2022/09/02 12:49:05;;;;;;;3.30;3.10;;;30.70;25.60;;;;;;5085214;28;20265;-88
2022/09/02 12:51:50;;;;;;;3.53;3.22;;;30.90;25.00;;;;;;5103048;28;20205;-87
2022/09/02 12:54:17;;;;;;;3.60;3.20;;;31.30;24.90;;;;;;5084665;28;20290;-88
2022/09/02 12:56:50;;;;;;;3.60;3.40;;;31.50;25.10;;;;;;5091686;28;20188;-88
2022/09/02 12:59:29;;;;;;;3.30;3.10;;;31.50;25.10;;;;;;5101581;28;20678;-88
2022/09/02 13:02:13;;;;;;;3.50;3.30;;;32.00;24.60;;;;;;5089589;28;20195;-88
2022/09/02 13:04:44;;;;;;;3.67;3.38;;;32.00;24.30;;;;;;5094009;28;20553;-89
2022/09/02 13:07:28;;;;;;;3.53;3.25;;;31.90;23.50;;;;;;5092785;28;20175;-88
2022/09/02 13:10:15;;;;;;;3.55;3.35;;;31.80;23.80;;;;;;5087670;28;20232;-89
2022/09/02 13:13:02;;;;;;;3.72;3.42;;;31.90;24.00;;;;;;5102586;28;20214;-88
2022/09/02 13:15:46;;;;;;;3.88;3.67;;;32.00;24.60;;;;;;5083351;28;20246;-88
2022/09/02 13:18:42;;;;;;;3.90;3.60;;;32.40;24.20;;;;;;5090634;28;20190;-88
2022/09/02 13:21:40;;;;;;;3.83;3.53;;;32.90;23.80;;;;;;5100091;28;20216;-88
2022/09/02 13:24:46;;;;;;;3.83;3.63;;;33.30;22.90;;;;;;5084327;28;20185;-89
2022/09/02 13:27:36;;;;;;;4.10;3.80;;;33.20;23.50;;;;;;5098492;28;20613;-89
2022/09/02 13:30:13;;;;;;;4.15;3.85;;;33.00;23.30;;;;;;5088744;28;20270;-88